sensor_id;sensor_type;location;lat;lon;timestamp;pressure;altitude;pressure_sealevel;temperature;humidity
82266;BME280;71866;53.340;-6.308;2023-09-19T00:01:37;99831.38;;;13.21;80.59
82266;BME280;71866;53.340;-6.308;2023-09-19T00:04:03;99823.97;;;13.23;80.38
82266;BME280;71866;53.340;-6.308;2023-09-19T00:06:30;99825.63;;;13.24;80.51
82266;BME280;71866;53.340;-6.308;2023-09-19T00:08:58;99828.88;;;13.19;79.46
82266;BME280;71866;53.340;-6.308;2023-09-19T00:11:24;99826.84;;;13.21;80.54
82266;BME280;71866;53.340;-6.308;2023-09-19T00:13:53;99830.53;;;13.20;79.38
82266;BME280;71866;53.340;-6.308;2023-09-19T00:16:20;99832.38;;;13.20;79.02
82266;BME280;71866;53.340;-6.308;2023-09-19T00:18:47;99833.41;;;13.19;79.21
82266;BME280;71866;53.340;-6.308;2023-09-19T00:21:14;99828.03;;;13.19;79.00
82266;BME280;71866;53.340;-6.308;2023-09-19T00:23:41;99838.97;;;13.17;79.19
82266;BME280;71866;53.340;-6.308;2023-09-19T00:26:08;99832.72;;;13.17;78.85
82266;BME280;71866;53.340;-6.308;2023-09-19T00:28:36;99825.19;;;13.12;78.72
82266;BME280;71866;53.340;-6.308;2023-09-19T00:31:03;99836.41;;;13.15;78.45
82266;BME280;71866;53.340;-6.308;2023-09-19T00:33:31;99833.06;;;13.13;79.66
82266;BME280;71866;53.340;-6.308;2023-09-19T00:35:57;99834.09;;;13.12;79.81
82266;BME280;71866;53.340;-6.308;2023-09-19T00:38:25;99843.81;;;13.13;81.62
82266;BME280;71866;53.340;-6.308;2023-09-19T00:40:52;99836.59;;;13.14;81.69
82266;BME280;71866;53.340;-6.308;2023-09-19T00:43:19;99843.81;;;13.13;82.64
82266;BME280;71866;53.340;-6.308;2023-09-19T00:45:49;99842.31;;;13.11;83.66
82266;BME280;71866;53.340;-6.308;2023-09-19T00:48:19;99841.00;;;13.07;84.48
82266;BME280;71866;53.340;-6.308;2023-09-19T00:50:47;99838.13;;;13.08;84.44
82266;BME280;71866;53.340;-6.308;2023-09-19T00:53:15;99842.69;;;13.08;85.29
82266;BME280;71866;53.340;-6.308;2023-09-19T00:55:46;99826.38;;;13.09;86.26
82266;BME280;71866;53.340;-6.308;2023-09-19T00:58:13;99821.19;;;13.08;86.36
82266;BME280;71866;53.340;-6.308;2023-09-19T01:00:40;99823.34;;;13.12;86.08
82266;BME280;71866;53.340;-6.308;2023-09-19T01:03:08;99824.66;;;13.17;86.40
82266;BME280;71866;53.340;-6.308;2023-09-19T01:05:37;99815.41;;;13.19;85.62
82266;BME280;71866;53.340;-6.308;2023-09-19T01:08:03;99817.56;;;13.24;86.66
82266;BME280;71866;53.340;-6.308;2023-09-19T01:10:30;99816.56;;;13.25;86.27
82266;BME280;71866;53.340;-6.308;2023-09-19T01:13:03;99809.50;;;13.24;86.44
82266;BME280;71866;53.340;-6.308;2023-09-19T01:16:03;99794.03;;;13.26;86.07
82266;BME280;71866;53.340;-6.308;2023-09-19T01:18:46;99789.78;;;13.31;86.37
82266;BME280;71866;53.340;-6.308;2023-09-19T01:21:31;99783.59;;;13.31;86.67
82266;BME280;71866;53.340;-6.308;2023-09-19T01:29:39;99755.81;;;13.38;85.91
82266;BME280;71866;53.340;-6.308;2023-09-19T01:32:09;99751.94;;;13.41;86.46
82266;BME280;71866;53.340;-6.308;2023-09-19T01:34:51;99745.19;;;13.45;86.21
82266;BME280;71866;53.340;-6.308;2023-09-19T01:37:21;99737.94;;;13.45;87.01
82266;BME280;71866;53.340;-6.308;2023-09-19T01:39:50;99728.56;;;13.41;86.25
82266;BME280;71866;53.340;-6.308;2023-09-19T01:42:35;99719.34;;;13.36;85.95
82266;BME280;71866;53.340;-6.308;2023-09-19T01:45:09;99707.94;;;13.34;86.85
82266;BME280;71866;53.340;-6.308;2023-09-19T01:47:51;99704.88;;;13.37;86.52
82266;BME280;71866;53.340;-6.308;2023-09-19T01:50:34;99690.97;;;13.33;87.38
82266;BME280;71866;53.340;-6.308;2023-09-19T01:53:19;99688.47;;;13.32;87.41
82266;BME280;71866;53.340;-6.308;2023-09-19T01:55:49;99670.19;;;13.27;87.43
82266;BME280;71866;53.340;-6.308;2023-09-19T01:58:29;99669.84;;;13.30;87.83
82266;BME280;71866;53.340;-6.308;2023-09-19T02:01:00;99655.38;;;13.31;87.78
82266;BME280;71866;53.340;-6.308;2023-09-19T02:03:28;99646.47;;;13.31;88.06
82266;BME280;71866;53.340;-6.308;2023-09-19T02:05:55;99648.78;;;13.34;88.80
82266;BME280;71866;53.340;-6.308;2023-09-19T02:08:22;99633.03;;;13.31;88.64
82266;BME280;71866;53.340;-6.308;2023-09-19T02:10:51;99634.31;;;13.35;88.69
82266;BME280;71866;53.340;-6.308;2023-09-19T02:13:19;99629.13;;;13.33;88.35
82266;BME280;71866;53.340;-6.308;2023-09-19T02:15:47;99621.06;;;13.33;88.38
82266;BME280;71866;53.340;-6.308;2023-09-19T02:18:14;99621.72;;;13.35;88.89
82266;BME280;71866;53.340;-6.308;2023-09-19T02:20:41;99609.94;;;13.36;88.41
82266;BME280;71866;53.340;-6.308;2023-09-19T02:23:10;99610.78;;;13.37;88.25
82266;BME280;71866;53.340;-6.308;2023-09-19T02:25:36;99597.34;;;13.37;88.62
82266;BME280;71866;53.340;-6.308;2023-09-19T02:28:04;99589.13;;;13.38;88.12
82266;BME280;71866;53.340;-6.308;2023-09-19T02:30:31;99574.81;;;13.38;88.23
82266;BME280;71866;53.340;-6.308;2023-09-19T02:32:58;99567.31;;;13.33;89.36
82266;BME280;71866;53.340;-6.308;2023-09-19T02:35:26;99565.91;;;13.37;89.61
82266;BME280;71866;53.340;-6.308;2023-09-19T02:37:53;99550.97;;;13.35;90.00
82266;BME280;71866;53.340;-6.308;2023-09-19T02:40:20;99544.59;;;13.36;89.60
82266;BME280;71866;53.340;-6.308;2023-09-19T02:42:48;99542.09;;;13.34;88.96
82266;BME280;71866;53.340;-6.308;2023-09-19T02:45:16;99533.19;;;13.34;89.54
82266;BME280;71866;53.340;-6.308;2023-09-19T02:47:47;99510.28;;;13.38;89.30
82266;BME280;71866;53.340;-6.308;2023-09-19T02:50:14;99508.47;;;13.38;89.71
82266;BME280;71866;53.340;-6.308;2023-09-19T02:52:43;99491.66;;;13.36;88.86
82266;BME280;71866;53.340;-6.308;2023-09-19T02:55:13;99479.16;;;13.43;88.81
82266;BME280;71866;53.340;-6.308;2023-09-19T02:57:45;99470.06;;;13.44;89.57
82266;BME280;71866;53.340;-6.308;2023-09-19T03:00:12;99462.44;;;13.48;90.00
82266;BME280;71866;53.340;-6.308;2023-09-19T03:02:40;99448.34;;;13.46;89.92
82266;BME280;71866;53.340;-6.308;2023-09-19T03:05:07;99444.28;;;13.50;89.86
82266;BME280;71866;53.340;-6.308;2023-09-19T03:07:35;99432.31;;;13.53;90.20
82266;BME280;71866;53.340;-6.308;2023-09-19T03:10:01;99423.84;;;13.56;89.52
82266;BME280;71866;53.340;-6.308;2023-09-19T03:12:29;99396.56;;;13.59;89.62
82266;BME280;71866;53.340;-6.308;2023-09-19T03:14:55;99400.75;;;13.61;89.86
82266;BME280;71866;53.340;-6.308;2023-09-19T03:17:23;99391.00;;;13.60;89.98
82266;BME280;71866;53.340;-6.308;2023-09-19T03:19:50;99376.09;;;13.58;90.45
82266;BME280;71866;53.340;-6.308;2023-09-19T03:22:18;99372.81;;;13.62;89.81
82266;BME280;71866;53.340;-6.308;2023-09-19T03:24:44;99363.91;;;13.62;91.00
82266;BME280;71866;53.340;-6.308;2023-09-19T03:27:12;99345.72;;;13.64;90.93
82266;BME280;71866;53.340;-6.308;2023-09-19T03:29:39;99331.91;;;13.67;90.92
82266;BME280;71866;53.340;-6.308;2023-09-19T03:32:06;99313.72;;;13.69;90.84
82266;BME280;71866;53.340;-6.308;2023-09-19T03:34:38;99300.91;;;13.71;91.50
82266;BME280;71866;53.340;-6.308;2023-09-19T03:37:05;99289.75;;;13.74;91.14
82266;BME280;71866;53.340;-6.308;2023-09-19T03:39:32;99284.19;;;13.75;91.26
82266;BME280;71866;53.340;-6.308;2023-09-19T03:41:59;99269.72;;;13.76;90.92
82266;BME280;71866;53.340;-6.308;2023-09-19T03:44:27;99266.84;;;13.78;91.08
82266;BME280;71866;53.340;-6.308;2023-09-19T03:46:53;99240.75;;;13.79;91.46
82266;BME280;71866;53.340;-6.308;2023-09-19T03:49:21;99239.75;;;13.80;92.32
82266;BME280;71866;53.340;-6.308;2023-09-19T03:51:49;99234.16;;;13.81;91.58
82266;BME280;71866;53.340;-6.308;2023-09-19T03:54:15;99230.25;;;13.84;91.66
82266;BME280;71866;53.340;-6.308;2023-09-19T03:56:44;99211.66;;;13.89;91.35
82266;BME280;71866;53.340;-6.308;2023-09-19T03:59:12;99201.53;;;13.91;91.95
82266;BME280;71866;53.340;-6.308;2023-09-19T04:01:39;99198.22;;;13.95;91.70
82266;BME280;71866;53.340;-6.308;2023-09-19T04:04:06;99171.75;;;13.99;91.30
82266;BME280;71866;53.340;-6.308;2023-09-19T04:06:34;99159.56;;;14.03;91.88
82266;BME280;71866;53.340;-6.308;2023-09-19T04:09:02;99146.75;;;14.05;91.18
82266;BME280;71866;53.340;-6.308;2023-09-19T04:11:32;99144.47;;;14.08;92.35
82266;BME280;71866;53.340;-6.308;2023-09-19T04:14:03;99142.41;;;14.11;91.71
82266;BME280;71866;53.340;-6.308;2023-09-19T04:16:29;99104.53;;;14.12;91.82
82266;BME280;71866;53.340;-6.308;2023-09-19T04:18:57;99112.84;;;14.17;92.41
82266;BME280;71866;53.340;-6.308;2023-09-19T04:21:24;99100.84;;;14.20;92.13
82266;BME280;71866;53.340;-6.308;2023-09-19T04:23:51;99101.47;;;14.22;92.08
82266;BME280;71866;53.340;-6.308;2023-09-19T04:26:18;99092.81;;;14.26;92.23
82266;BME280;71866;53.340;-6.308;2023-09-19T04:28:45;99085.34;;;14.28;92.95
82266;BME280;71866;53.340;-6.308;2023-09-19T04:31:13;99071.47;;;14.31;92.97
82266;BME280;71866;53.340;-6.308;2023-09-19T04:33:40;99054.09;;;14.34;92.73
82266;BME280;71866;53.340;-6.308;2023-09-19T04:36:08;99055.13;;;14.33;93.12
82266;BME280;71866;53.340;-6.308;2023-09-19T04:38:55;99055.34;;;14.38;93.67
82266;BME280;71866;53.340;-6.308;2023-09-19T04:41:22;99049.38;;;14.43;93.25
82266;BME280;71866;53.340;-6.308;2023-09-19T04:43:49;99032.81;;;14.46;92.84
82266;BME280;71866;53.340;-6.308;2023-09-19T04:46:16;99015.59;;;14.47;93.28
82266;BME280;71866;53.340;-6.308;2023-09-19T04:48:44;99024.31;;;14.49;92.75
82266;BME280;71866;53.340;-6.308;2023-09-19T04:51:11;99020.19;;;14.53;92.85
82266;BME280;71866;53.340;-6.308;2023-09-19T04:53:38;99014.81;;;14.59;93.44
82266;BME280;71866;53.340;-6.308;2023-09-19T04:56:06;99018.13;;;14.61;92.79
82266;BME280;71866;53.340;-6.308;2023-09-19T04:58:33;99001.56;;;14.64;92.97
82266;BME280;71866;53.340;-6.308;2023-09-19T05:00:59;99029.72;;;14.68;93.34
82266;BME280;71866;53.340;-6.308;2023-09-19T05:03:27;98999.47;;;14.73;93.02
82266;BME280;71866;53.340;-6.308;2023-09-19T05:05:54;99014.19;;;14.77;93.37
82266;BME280;71866;53.340;-6.308;2023-09-19T05:08:21;98996.78;;;14.80;93.39
82266;BME280;71866;53.340;-6.308;2023-09-19T05:10:49;98994.91;;;14.80;93.04
82266;BME280;71866;53.340;-6.308;2023-09-19T05:13:16;98990.38;;;14.87;92.93
82266;BME280;71866;53.340;-6.308;2023-09-19T05:15:43;99000.94;;;14.95;93.13
82266;BME280;71866;53.340;-6.308;2023-09-19T05:18:10;98987.03;;;14.98;92.77
82266;BME280;71866;53.340;-6.308;2023-09-19T05:20:38;98992.81;;;15.09;92.32
82266;BME280;71866;53.340;-6.308;2023-09-19T05:23:05;98965.00;;;15.15;92.55
82266;BME280;71866;53.340;-6.308;2023-09-19T05:25:33;98958.78;;;15.21;92.54
82266;BME280;71866;53.340;-6.308;2023-09-19T05:28:00;98955.03;;;15.22;92.68
82266;BME280;71866;53.340;-6.308;2023-09-19T05:30:28;98974.13;;;15.27;92.79
82266;BME280;71866;53.340;-6.308;2023-09-19T05:32:55;98974.97;;;15.27;92.27
82266;BME280;71866;53.340;-6.308;2023-09-19T05:35:22;98971.19;;;15.35;92.45
82266;BME280;71866;53.340;-6.308;2023-09-19T05:37:51;98981.56;;;15.38;92.57
82266;BME280;71866;53.340;-6.308;2023-09-19T05:40:18;98963.69;;;15.44;92.26
82266;BME280;71866;53.340;-6.308;2023-09-19T05:42:45;98957.66;;;15.48;92.41
82266;BME280;71866;53.340;-6.308;2023-09-19T05:45:13;98960.13;;;15.50;92.18
82266;BME280;71866;53.340;-6.308;2023-09-19T05:47:40;98956.19;;;15.52;92.00
82266;BME280;71866;53.340;-6.308;2023-09-19T05:50:09;98953.06;;;15.55;92.68
82266;BME280;71866;53.340;-6.308;2023-09-19T05:52:37;98945.56;;;15.57;92.53
82266;BME280;71866;53.340;-6.308;2023-09-19T05:55:07;98947.88;;;15.60;92.63
82266;BME280;71866;53.340;-6.308;2023-09-19T05:57:34;98934.19;;;15.55;93.10
82266;BME280;71866;53.340;-6.308;2023-09-19T06:00:02;98923.16;;;15.57;93.03
82266;BME280;71866;53.340;-6.308;2023-09-19T06:02:29;98943.53;;;15.59;93.69
82266;BME280;71866;53.340;-6.308;2023-09-19T06:04:56;98939.59;;;15.62;93.70
82266;BME280;71866;53.340;-6.308;2023-09-19T06:07:24;98937.31;;;15.66;93.47
82266;BME280;71866;53.340;-6.308;2023-09-19T06:09:52;98932.13;;;15.64;93.51
82266;BME280;71866;53.340;-6.308;2023-09-19T06:12:20;98934.34;;;15.74;92.93
82266;BME280;71866;53.340;-6.308;2023-09-19T06:14:46;98950.53;;;15.74;93.19
82266;BME280;71866;53.340;-6.308;2023-09-19T06:17:14;98924.56;;;15.79;92.38
82266;BME280;71866;53.340;-6.308;2023-09-19T06:19:40;98930.13;;;15.84;92.19
82266;BME280;71866;53.340;-6.308;2023-09-19T06:22:08;98897.31;;;15.87;92.23
82266;BME280;71866;53.340;-6.308;2023-09-19T06:24:36;98939.84;;;15.92;92.73
82266;BME280;71866;53.340;-6.308;2023-09-19T06:27:03;98919.69;;;15.94;92.50
82266;BME280;71866;53.340;-6.308;2023-09-19T06:29:30;98899.53;;;15.97;92.89
82266;BME280;71866;53.340;-6.308;2023-09-19T06:31:57;98882.91;;;16.00;93.02
82266;BME280;71866;53.340;-6.308;2023-09-19T06:34:24;98941.88;;;16.03;93.07
82266;BME280;71866;53.340;-6.308;2023-09-19T06:36:51;98932.94;;;16.03;92.90
82266;BME280;71866;53.340;-6.308;2023-09-19T06:39:18;98928.38;;;16.03;92.52
82266;BME280;71866;53.340;-6.308;2023-09-19T06:41:45;98909.47;;;16.03;92.85
82266;BME280;71866;53.340;-6.308;2023-09-19T06:44:12;98927.31;;;16.04;93.19
82266;BME280;71866;53.340;-6.308;2023-09-19T06:46:40;98920.06;;;16.05;93.63
82266;BME280;71866;53.340;-6.308;2023-09-19T06:49:06;98913.81;;;16.04;93.58
82266;BME280;71866;53.340;-6.308;2023-09-19T06:51:34;98929.81;;;16.06;93.93
82266;BME280;71866;53.340;-6.308;2023-09-19T06:54:01;98935.81;;;16.08;93.89
82266;BME280;71866;53.340;-6.308;2023-09-19T06:56:29;98931.47;;;16.07;93.88
82266;BME280;71866;53.340;-6.308;2023-09-19T06:58:56;98954.88;;;16.13;94.17
82266;BME280;71866;53.340;-6.308;2023-09-19T07:01:23;98930.19;;;16.09;95.25
82266;BME280;71866;53.340;-6.308;2023-09-19T07:03:50;98922.53;;;16.06;95.62
82266;BME280;71866;53.340;-6.308;2023-09-19T07:06:17;98955.16;;;16.05;95.37
82266;BME280;71866;53.340;-6.308;2023-09-19T07:08:45;98944.56;;;16.03;95.71
82266;BME280;71866;53.340;-6.308;2023-09-19T07:11:11;98953.28;;;16.05;96.05
82266;BME280;71866;53.340;-6.308;2023-09-19T07:13:39;98970.31;;;16.06;95.67
82266;BME280;71866;53.340;-6.308;2023-09-19T07:16:06;98954.94;;;16.06;95.36
82266;BME280;71866;53.340;-6.308;2023-09-19T07:18:34;98948.31;;;16.02;96.41
82266;BME280;71866;53.340;-6.308;2023-09-19T07:21:00;98965.69;;;16.13;96.38
82266;BME280;71866;53.340;-6.308;2023-09-19T07:23:28;98972.31;;;16.17;95.87
82266;BME280;71866;53.340;-6.308;2023-09-19T07:25:57;98974.78;;;16.18;95.76
82266;BME280;71866;53.340;-6.308;2023-09-19T07:28:24;98972.47;;;16.22;95.83
82266;BME280;71866;53.340;-6.308;2023-09-19T07:30:52;98979.94;;;16.26;95.31
82266;BME280;71866;53.340;-6.308;2023-09-19T07:33:18;98974.53;;;16.26;95.42
82266;BME280;71866;53.340;-6.308;2023-09-19T07:35:47;98991.50;;;16.34;95.92
82266;BME280;71866;53.340;-6.308;2023-09-19T07:38:14;98976.97;;;16.35;95.18
82266;BME280;71866;53.340;-6.308;2023-09-19T07:40:40;98982.78;;;16.38;95.88
82266;BME280;71866;53.340;-6.308;2023-09-19T07:43:08;98990.66;;;16.40;95.54
82266;BME280;71866;53.340;-6.308;2023-09-19T07:45:35;98992.94;;;16.43;96.06
82266;BME280;71866;53.340;-6.308;2023-09-19T07:48:03;99003.94;;;16.41;94.99
82266;BME280;71866;53.340;-6.308;2023-09-19T07:50:30;99001.81;;;16.50;95.30
82266;BME280;71866;53.340;-6.308;2023-09-19T07:52:56;99001.59;;;16.51;95.00
82266;BME280;71866;53.340;-6.308;2023-09-19T07:55:24;99005.13;;;16.52;94.54
82266;BME280;71866;53.340;-6.308;2023-09-19T07:57:52;99029.22;;;16.53;95.14
82266;BME280;71866;53.340;-6.308;2023-09-19T08:00:19;99006.94;;;16.58;94.24
82266;BME280;71866;53.340;-6.308;2023-09-19T08:02:46;99028.13;;;16.61;95.16
82266;BME280;71866;53.340;-6.308;2023-09-19T08:05:24;99009.41;;;16.66;94.24
82266;BME280;71866;53.340;-6.308;2023-09-19T08:07:51;99009.56;;;16.71;94.07
82266;BME280;71866;53.340;-6.308;2023-09-19T08:10:19;98992.94;;;16.74;93.87
82266;BME280;71866;53.340;-6.308;2023-09-19T08:12:47;99013.63;;;16.87;93.46
82266;BME280;71866;53.340;-6.308;2023-09-19T08:15:19;99001.09;;;16.93;93.74
82266;BME280;71866;53.340;-6.308;2023-09-19T08:17:47;99008.53;;;16.97;93.02
82266;BME280;71866;53.340;-6.308;2023-09-19T08:20:15;99023.41;;;17.06;93.04
82266;BME280;71866;53.340;-6.308;2023-09-19T08:22:53;99009.03;;;17.12;92.74
82266;BME280;71866;53.340;-6.308;2023-09-19T08:25:21;98999.88;;;17.13;92.36
82266;BME280;71866;53.340;-6.308;2023-09-19T08:27:48;99009.13;;;17.24;90.49
82266;BME280;71866;53.340;-6.308;2023-09-19T08:30:16;99006.94;;;17.33;90.51
82266;BME280;71866;53.340;-6.308;2023-09-19T08:32:45;99013.47;;;17.43;89.81
82266;BME280;71866;53.340;-6.308;2023-09-19T08:35:11;99003.06;;;17.47;89.36
82266;BME280;71866;53.340;-6.308;2023-09-19T08:37:39;99006.28;;;17.56;89.13
82266;BME280;71866;53.340;-6.308;2023-09-19T08:40:06;99005.38;;;17.62;88.39
82266;BME280;71866;53.340;-6.308;2023-09-19T08:42:54;99015.09;;;17.69;89.22
82266;BME280;71866;53.340;-6.308;2023-09-19T08:45:22;98998.63;;;17.71;88.58
82266;BME280;71866;53.340;-6.308;2023-09-19T08:50:41;99010.06;;;17.91;86.70
82266;BME280;71866;53.340;-6.308;2023-09-19T08:53:11;99019.88;;;18.04;85.00
82266;BME280;71866;53.340;-6.308;2023-09-19T08:55:42;99028.16;;;18.09;86.41
82266;BME280;71866;53.340;-6.308;2023-09-19T08:58:13;99031.00;;;18.14;87.93
82266;BME280;71866;53.340;-6.308;2023-09-19T09:00:44;99034.75;;;18.13;86.84
82266;BME280;71866;53.340;-6.308;2023-09-19T09:03:12;99059.38;;;18.11;86.15
82266;BME280;71866;53.340;-6.308;2023-09-19T09:05:41;99055.38;;;18.14;86.54
82266;BME280;71866;53.340;-6.308;2023-09-19T09:08:10;99070.44;;;18.10;87.58
82266;BME280;71866;53.340;-6.308;2023-09-19T09:10:37;99059.84;;;18.08;87.16
82266;BME280;71866;53.340;-6.308;2023-09-19T09:13:04;99080.06;;;18.06;87.43
82266;BME280;71866;53.340;-6.308;2023-09-19T09:15:36;99075.25;;;18.08;86.88
82266;BME280;71866;53.340;-6.308;2023-09-19T09:18:03;99075.63;;;18.11;86.76
82266;BME280;71866;53.340;-6.308;2023-09-19T09:20:31;99087.97;;;18.07;88.96
82266;BME280;71866;53.340;-6.308;2023-09-19T09:22:58;99074.06;;;18.04;87.22
82266;BME280;71866;53.340;-6.308;2023-09-19T09:25:51;99075.50;;;18.06;88.42
82266;BME280;71866;53.340;-6.308;2023-09-19T09:28:21;99083.63;;;18.06;88.83
82266;BME280;71866;53.340;-6.308;2023-09-19T09:30:48;99102.88;;;17.98;89.62
82266;BME280;71866;53.340;-6.308;2023-09-19T09:33:14;99102.88;;;17.98;90.50
82266;BME280;71866;53.340;-6.308;2023-09-19T09:35:55;99097.91;;;17.95;89.56
82266;BME280;71866;53.340;-6.308;2023-09-19T09:38:26;99087.53;;;17.92;89.29
82266;BME280;71866;53.340;-6.308;2023-09-19T09:40:55;99094.97;;;17.97;89.70
82266;BME280;71866;53.340;-6.308;2023-09-19T09:43:33;99099.56;;;17.96;90.32
82266;BME280;71866;53.340;-6.308;2023-09-19T09:46:15;99103.47;;;18.00;88.36
82266;BME280;71866;53.340;-6.308;2023-09-19T09:48:41;99088.88;;;18.01;88.79
82266;BME280;71866;53.340;-6.308;2023-09-19T09:51:09;99087.38;;;18.05;88.83
82266;BME280;71866;53.340;-6.308;2023-09-19T09:53:37;99090.69;;;18.07;88.63
82266;BME280;71866;53.340;-6.308;2023-09-19T09:56:08;99093.91;;;18.16;87.45
82266;BME280;71866;53.340;-6.308;2023-09-19T09:58:38;99113.25;;;18.20;88.56
82266;BME280;71866;53.340;-6.308;2023-09-19T10:01:15;99104.69;;;18.23;88.72
82266;BME280;71866;53.340;-6.308;2023-09-19T10:03:43;99113.41;;;18.25;87.78
82266;BME280;71866;53.340;-6.308;2023-09-19T10:06:12;99108.00;;;18.25;89.24
82266;BME280;71866;53.340;-6.308;2023-09-19T10:08:39;99113.41;;;18.25;89.45
82266;BME280;71866;53.340;-6.308;2023-09-19T10:11:16;99122.59;;;18.24;89.34
82266;BME280;71866;53.340;-6.308;2023-09-19T10:13:44;99125.31;;;18.24;90.23
82266;BME280;71866;53.340;-6.308;2023-09-19T10:16:13;99122.81;;;18.22;89.96
82266;BME280;71866;53.340;-6.308;2023-09-19T10:18:42;99124.72;;;18.22;89.03
82266;BME280;71866;53.340;-6.308;2023-09-19T10:21:11;99127.63;;;18.20;89.84
82266;BME280;71866;53.340;-6.308;2023-09-19T10:23:40;99120.13;;;18.22;89.09
82266;BME280;71866;53.340;-6.308;2023-09-19T10:26:10;99116.34;;;18.23;88.97
82266;BME280;71866;53.340;-6.308;2023-09-19T10:28:38;99134.72;;;18.21;89.92
82266;BME280;71866;53.340;-6.308;2023-09-19T10:31:06;99132.16;;;18.26;88.92
82266;BME280;71866;53.340;-6.308;2023-09-19T10:33:36;99127.09;;;18.30;88.79
82266;BME280;71866;53.340;-6.308;2023-09-19T10:36:06;99118.53;;;18.33;88.45
82266;BME280;71866;53.340;-6.308;2023-09-19T10:38:34;99132.81;;;18.40;87.80
82266;BME280;71866;53.340;-6.308;2023-09-19T10:41:01;99123.16;;;18.44;88.46
82266;BME280;71866;53.340;-6.308;2023-09-19T10:43:30;99123.06;;;18.51;87.54
82266;BME280;71866;53.340;-6.308;2023-09-19T10:46:03;99130.16;;;18.52;87.60
82266;BME280;71866;53.340;-6.308;2023-09-19T10:48:34;99130.47;;;18.62;88.38
82266;BME280;71866;53.340;-6.308;2023-09-19T10:51:18;99111.50;;;18.62;88.37
82266;BME280;71866;53.340;-6.308;2023-09-19T10:54:05;99140.03;;;18.64;88.06
82266;BME280;71866;53.340;-6.308;2023-09-19T10:56:38;99143.81;;;18.63;88.43
82266;BME280;71866;53.340;-6.308;2023-09-19T10:59:09;99142.16;;;18.62;88.22
82266;BME280;71866;53.340;-6.308;2023-09-19T11:01:46;99141.31;;;18.62;88.45
82266;BME280;71866;53.340;-6.308;2023-09-19T11:04:32;99145.06;;;18.61;89.91
82266;BME280;71866;53.340;-6.308;2023-09-19T11:07:11;99131.56;;;18.54;88.89
82266;BME280;71866;53.340;-6.308;2023-09-19T11:09:55;99142.59;;;18.59;89.03
82266;BME280;71866;53.340;-6.308;2023-09-19T11:14:57;99128.72;;;18.67;89.57
82266;BME280;71866;53.340;-6.308;2023-09-19T11:25:46;99114.34;;;18.67;89.07
82266;BME280;71866;53.340;-6.308;2023-09-19T11:30:45;99111.03;;;18.65;88.02
82266;BME280;71866;53.340;-6.308;2023-09-19T11:43:50;99113.78;;;18.77;88.37
82266;BME280;71866;53.340;-6.308;2023-09-19T11:46:23;99130.91;;;18.89;88.65
82266;BME280;71866;53.340;-6.308;2023-09-19T11:48:51;99115.59;;;18.94;88.01
82266;BME280;71866;53.340;-6.308;2023-09-19T11:51:20;99123.06;;;18.99;87.22
82266;BME280;71866;53.340;-6.308;2023-09-19T11:53:48;99121.91;;;19.07;87.23
82266;BME280;71866;53.340;-6.308;2023-09-19T11:56:17;99109.50;;;19.11;86.58
82266;BME280;71866;53.340;-6.308;2023-09-19T11:58:45;99120.13;;;19.12;86.68
82266;BME280;71866;53.340;-6.308;2023-09-19T12:01:13;99108.22;;;19.13;85.94
82266;BME280;71866;53.340;-6.308;2023-09-19T12:03:43;99080.97;;;19.08;85.23
82266;BME280;71866;53.340;-6.308;2023-09-19T12:06:12;99103.84;;;19.12;85.93
82266;BME280;71866;53.340;-6.308;2023-09-19T12:08:41;99107.41;;;19.13;86.83
82266;BME280;71866;53.340;-6.308;2023-09-19T12:11:13;99090.06;;;19.14;85.03
82266;BME280;71866;53.340;-6.308;2023-09-19T12:13:45;99107.75;;;19.16;85.65
82266;BME280;71866;53.340;-6.308;2023-09-19T12:16:16;99097.50;;;19.18;86.07
82266;BME280;71866;53.340;-6.308;2023-09-19T12:18:45;99088.63;;;19.11;85.39
82266;BME280;71866;53.340;-6.308;2023-09-19T12:21:29;99088.75;;;19.16;86.17
82266;BME280;71866;53.340;-6.308;2023-09-19T12:26:29;99124.03;;;19.28;85.32
82266;BME280;71866;53.340;-6.308;2023-09-19T12:28:57;99122.28;;;19.22;84.92
82266;BME280;71866;53.340;-6.308;2023-09-19T12:31:24;99133.47;;;19.25;86.21
82266;BME280;71866;53.340;-6.308;2023-09-19T12:33:54;99118.38;;;19.18;86.48
82266;BME280;71866;53.340;-6.308;2023-09-19T12:36:23;99128.75;;;19.09;86.53
82266;BME280;71866;53.340;-6.308;2023-09-19T12:38:51;99127.31;;;19.07;86.94
82266;BME280;71866;53.340;-6.308;2023-09-19T12:41:17;99134.88;;;19.04;86.54
82266;BME280;71866;53.340;-6.308;2023-09-19T12:43:44;99140.53;;;19.03;86.58
82266;BME280;71866;53.340;-6.308;2023-09-19T12:46:12;99135.94;;;19.03;86.47
82266;BME280;71866;53.340;-6.308;2023-09-19T12:48:38;99097.28;;;18.78;86.83
82266;BME280;71866;53.340;-6.308;2023-09-19T12:51:08;99144.91;;;19.04;86.41
82266;BME280;71866;53.340;-6.308;2023-09-19T12:56:04;99142.53;;;19.08;86.44
82266;BME280;71866;53.340;-6.308;2023-09-19T12:58:31;99144.44;;;19.07;86.84
82266;BME280;71866;53.340;-6.308;2023-09-19T13:00:59;99162.81;;;19.05;87.29
82266;BME280;71866;53.340;-6.308;2023-09-19T13:03:28;99150.56;;;19.02;86.97
82266;BME280;71866;53.340;-6.308;2023-09-19T13:13:34;99161.53;;;19.08;87.76
82266;BME280;71866;53.340;-6.308;2023-09-19T13:16:01;99166.03;;;19.14;87.76
82266;BME280;71866;53.340;-6.308;2023-09-19T13:18:29;99169.22;;;19.11;87.36
82266;BME280;71866;53.340;-6.308;2023-09-19T13:21:09;99186.81;;;19.20;88.11
82266;BME280;71866;53.340;-6.308;2023-09-19T13:23:36;99171.34;;;19.20;87.42
82266;BME280;71866;53.340;-6.308;2023-09-19T13:26:03;99176.09;;;19.25;87.29
82266;BME280;71866;53.340;-6.308;2023-09-19T13:28:33;99180.09;;;19.22;87.25
82266;BME280;71866;53.340;-6.308;2023-09-19T13:31:00;99170.66;;;19.25;86.90
82266;BME280;71866;53.340;-6.308;2023-09-19T13:33:28;99182.03;;;19.33;86.74
82266;BME280;71866;53.340;-6.308;2023-09-19T13:35:58;99170.78;;;19.30;86.91
82266;BME280;71866;53.340;-6.308;2023-09-19T13:38:25;99173.25;;;19.31;87.36
82266;BME280;71866;53.340;-6.308;2023-09-19T13:40:52;99169.03;;;19.35;86.25
82266;BME280;71866;53.340;-6.308;2023-09-19T13:43:19;99169.63;;;19.38;85.62
82266;BME280;71866;53.340;-6.308;2023-09-19T13:45:46;99150.34;;;19.27;86.06